sensor_id;sensor_type;location;lat;lon;timestamp;P1;durP1;ratioP1;P2;durP2;ratioP2
77191;SDS011;66172;48.526;8.078;2023-06-22T00:00:55;10.40;;;5.68;;
77191;SDS011;66172;48.526;8.078;2023-06-22T00:03:22;9.90;;;5.35;;
77191;SDS011;66172;48.526;8.078;2023-06-22T00:05:50;10.70;;;5.60;;
77191;SDS011;66172;48.526;8.078;2023-06-22T00:08:17;9.75;;;5.70;;
77191;SDS011;66172;48.526;8.078;2023-06-22T00:10:43;10.35;;;5.57;;
77191;SDS011;66172;48.526;8.078;2023-06-22T00:13:10;9.95;;;5.40;;
77191;SDS011;66172;48.526;8.078;2023-06-22T00:15:37;10.38;;;5.57;;
77191;SDS011;66172;48.526;8.078;2023-06-22T00:18:04;10.17;;;5.67;;
77191;SDS011;66172;48.526;8.078;2023-06-22T00:20:31;10.02;;;5.68;;
77191;SDS011;66172;48.526;8.078;2023-06-22T00:22:58;10.00;;;5.75;;
77191;SDS011;66172;48.526;8.078;2023-06-22T00:25:25;10.02;;;5.40;;
77191;SDS011;66172;48.526;8.078;2023-06-22T00:27:51;10.40;;;5.35;;
77191;SDS011;66172;48.526;8.078;2023-06-22T00:30:17;10.10;;;5.90;;
77191;SDS011;66172;48.526;8.078;2023-06-22T00:32:44;10.85;;;6.45;;
77191;SDS011;66172;48.526;8.078;2023-06-22T00:35:13;12.88;;;6.10;;
77191;SDS011;66172;48.526;8.078;2023-06-22T00:37:39;10.70;;;6.28;;
77191;SDS011;66172;48.526;8.078;2023-06-22T00:40:08;11.63;;;6.20;;
77191;SDS011;66172;48.526;8.078;2023-06-22T00:42:37;10.33;;;5.77;;
77191;SDS011;66172;48.526;8.078;2023-06-22T00:45:07;12.10;;;5.68;;
77191;SDS011;66172;48.526;8.078;2023-06-22T00:47:36;9.38;;;5.50;;
77191;SDS011;66172;48.526;8.078;2023-06-22T00:50:03;9.90;;;5.65;;
77191;SDS011;66172;48.526;8.078;2023-06-22T00:52:32;11.73;;;6.03;;
77191;SDS011;66172;48.526;8.078;2023-06-22T00:55:01;10.57;;;5.87;;
77191;SDS011;66172;48.526;8.078;2023-06-22T00:57:28;12.32;;;6.10;;
77191;SDS011;66172;48.526;8.078;2023-06-22T00:59:54;9.82;;;5.95;;
77191;SDS011;66172;48.526;8.078;2023-06-22T01:02:20;10.73;;;6.03;;
77191;SDS011;66172;48.526;8.078;2023-06-22T01:04:46;10.43;;;5.57;;
77191;SDS011;66172;48.526;8.078;2023-06-22T01:07:22;11.83;;;5.50;;
77191;SDS011;66172;48.526;8.078;2023-06-22T01:13:04;10.15;;;5.53;;
77191;SDS011;66172;48.526;8.078;2023-06-22T01:15:38;11.10;;;5.75;;
77191;SDS011;66172;48.526;8.078;2023-06-22T01:18:08;11.53;;;5.87;;
77191;SDS011;66172;48.526;8.078;2023-06-22T01:20:36;12.90;;;6.00;;
77191;SDS011;66172;48.526;8.078;2023-06-22T01:26:14;10.55;;;6.10;;
77191;SDS011;66172;48.526;8.078;2023-06-22T01:28:48;11.77;;;5.60;;
77191;SDS011;66172;48.526;8.078;2023-06-22T01:31:19;11.20;;;5.77;;
77191;SDS011;66172;48.526;8.078;2023-06-22T01:33:50;10.90;;;5.90;;
77191;SDS011;66172;48.526;8.078;2023-06-22T01:36:19;11.57;;;6.25;;
77191;SDS011;66172;48.526;8.078;2023-06-22T01:38:47;13.98;;;5.80;;
77191;SDS011;66172;48.526;8.078;2023-06-22T01:41:14;11.10;;;5.43;;
77191;SDS011;66172;48.526;8.078;2023-06-22T01:43:42;11.80;;;5.53;;
77191;SDS011;66172;48.526;8.078;2023-06-22T01:46:09;11.48;;;5.88;;
77191;SDS011;66172;48.526;8.078;2023-06-22T01:48:35;12.95;;;6.28;;
77191;SDS011;66172;48.526;8.078;2023-06-22T01:51:02;11.20;;;5.82;;
77191;SDS011;66172;48.526;8.078;2023-06-22T01:53:28;12.48;;;6.38;;
77191;SDS011;66172;48.526;8.078;2023-06-22T01:55:54;13.40;;;6.67;;
77191;SDS011;66172;48.526;8.078;2023-06-22T01:58:22;12.85;;;6.45;;
77191;SDS011;66172;48.526;8.078;2023-06-22T02:01:01;11.52;;;6.22;;
77191;SDS011;66172;48.526;8.078;2023-06-22T02:03:50;11.10;;;6.05;;
77191;SDS011;66172;48.526;8.078;2023-06-22T02:06:29;10.95;;;6.22;;
77191;SDS011;66172;48.526;8.078;2023-06-22T02:09:01;11.07;;;5.93;;
77191;SDS011;66172;48.526;8.078;2023-06-22T02:11:31;12.40;;;5.82;;
77191;SDS011;66172;48.526;8.078;2023-06-22T02:13:59;12.02;;;6.68;;
77191;SDS011;66172;48.526;8.078;2023-06-22T02:16:25;12.05;;;6.25;;
77191;SDS011;66172;48.526;8.078;2023-06-22T02:18:55;10.82;;;6.15;;
77191;SDS011;66172;48.526;8.078;2023-06-22T02:21:28;10.47;;;5.30;;
77191;SDS011;66172;48.526;8.078;2023-06-22T02:23:55;11.30;;;5.97;;
77191;SDS011;66172;48.526;8.078;2023-06-22T02:26:21;10.73;;;5.72;;
77191;SDS011;66172;48.526;8.078;2023-06-22T02:28:48;12.18;;;5.68;;
77191;SDS011;66172;48.526;8.078;2023-06-22T02:31:13;11.57;;;6.33;;
77191;SDS011;66172;48.526;8.078;2023-06-22T02:33:39;11.45;;;5.75;;
77191;SDS011;66172;48.526;8.078;2023-06-22T02:36:05;12.13;;;5.75;;
77191;SDS011;66172;48.526;8.078;2023-06-22T02:38:35;10.85;;;6.20;;
77191;SDS011;66172;48.526;8.078;2023-06-22T02:41:02;10.67;;;6.07;;
77191;SDS011;66172;48.526;8.078;2023-06-22T02:43:28;10.40;;;5.70;;
77191;SDS011;66172;48.526;8.078;2023-06-22T02:45:54;11.93;;;6.03;;
77191;SDS011;66172;48.526;8.078;2023-06-22T02:48:20;12.50;;;6.18;;
77191;SDS011;66172;48.526;8.078;2023-06-22T02:50:46;12.30;;;5.90;;
77191;SDS011;66172;48.526;8.078;2023-06-22T02:53:12;11.52;;;6.03;;
77191;SDS011;66172;48.526;8.078;2023-06-22T02:55:38;10.75;;;5.95;;
77191;SDS011;66172;48.526;8.078;2023-06-22T02:58:05;11.30;;;6.28;;
77191;SDS011;66172;48.526;8.078;2023-06-22T03:00:31;11.37;;;5.60;;
77191;SDS011;66172;48.526;8.078;2023-06-22T03:02:57;13.00;;;5.55;;
77191;SDS011;66172;48.526;8.078;2023-06-22T03:05:23;13.43;;;5.80;;
77191;SDS011;66172;48.526;8.078;2023-06-22T03:07:49;13.77;;;6.28;;
77191;SDS011;66172;48.526;8.078;2023-06-22T03:10:15;11.85;;;6.05;;
77191;SDS011;66172;48.526;8.078;2023-06-22T03:12:42;14.17;;;6.07;;
77191;SDS011;66172;48.526;8.078;2023-06-22T03:15:09;12.18;;;6.00;;
77191;SDS011;66172;48.526;8.078;2023-06-22T03:17:37;11.32;;;6.07;;
77191;SDS011;66172;48.526;8.078;2023-06-22T03:20:04;9.68;;;5.55;;
77191;SDS011;66172;48.526;8.078;2023-06-22T03:22:35;10.07;;;5.78;;
77191;SDS011;66172;48.526;8.078;2023-06-22T03:25:01;11.87;;;5.90;;
77191;SDS011;66172;48.526;8.078;2023-06-22T03:27:27;13.15;;;5.90;;
77191;SDS011;66172;48.526;8.078;2023-06-22T03:29:53;12.15;;;5.80;;
77191;SDS011;66172;48.526;8.078;2023-06-22T03:32:19;10.20;;;6.05;;
77191;SDS011;66172;48.526;8.078;2023-06-22T03:34:45;11.43;;;6.13;;
77191;SDS011;66172;48.526;8.078;2023-06-22T03:37:14;13.05;;;5.97;;
77191;SDS011;66172;48.526;8.078;2023-06-22T03:39:40;11.50;;;5.45;;
77191;SDS011;66172;48.526;8.078;2023-06-22T03:42:07;12.38;;;5.80;;
77191;SDS011;66172;48.526;8.078;2023-06-22T03:44:34;11.75;;;6.13;;
77191;SDS011;66172;48.526;8.078;2023-06-22T03:47:04;13.87;;;6.83;;
77191;SDS011;66172;48.526;8.078;2023-06-22T03:49:33;14.43;;;5.95;;
77191;SDS011;66172;48.526;8.078;2023-06-22T03:52:00;13.38;;;5.68;;
77191;SDS011;66172;48.526;8.078;2023-06-22T03:54:30;10.98;;;5.53;;
77191;SDS011;66172;48.526;8.078;2023-06-22T03:56:56;12.48;;;5.93;;
77191;SDS011;66172;48.526;8.078;2023-06-22T03:59:23;14.20;;;5.60;;
77191;SDS011;66172;48.526;8.078;2023-06-22T04:01:49;13.55;;;5.60;;
77191;SDS011;66172;48.526;8.078;2023-06-22T04:04:17;14.00;;;6.20;;
77191;SDS011;66172;48.526;8.078;2023-06-22T04:06:43;12.95;;;5.70;;
77191;SDS011;66172;48.526;8.078;2023-06-22T04:09:09;12.93;;;6.37;;
77191;SDS011;66172;48.526;8.078;2023-06-22T04:11:35;14.03;;;5.53;;
77191;SDS011;66172;48.526;8.078;2023-06-22T04:14:01;11.70;;;5.68;;
77191;SDS011;66172;48.526;8.078;2023-06-22T04:16:27;13.45;;;5.90;;
77191;SDS011;66172;48.526;8.078;2023-06-22T04:18:53;10.53;;;5.23;;
77191;SDS011;66172;48.526;8.078;2023-06-22T04:21:19;10.63;;;5.70;;
77191;SDS011;66172;48.526;8.078;2023-06-22T04:23:47;10.32;;;5.80;;
77191;SDS011;66172;48.526;8.078;2023-06-22T04:26:13;12.10;;;5.82;;
77191;SDS011;66172;48.526;8.078;2023-06-22T04:28:40;12.20;;;5.82;;
77191;SDS011;66172;48.526;8.078;2023-06-22T04:31:06;11.23;;;5.40;;
77191;SDS011;66172;48.526;8.078;2023-06-22T04:33:32;10.48;;;5.45;;
77191;SDS011;66172;48.526;8.078;2023-06-22T04:35:58;14.43;;;5.88;;
77191;SDS011;66172;48.526;8.078;2023-06-22T04:38:26;12.45;;;5.60;;
77191;SDS011;66172;48.526;8.078;2023-06-22T04:40:52;13.07;;;5.57;;
77191;SDS011;66172;48.526;8.078;2023-06-22T04:43:19;14.30;;;6.50;;
77191;SDS011;66172;48.526;8.078;2023-06-22T04:45:45;11.80;;;6.82;;
77191;SDS011;66172;48.526;8.078;2023-06-22T04:48:11;14.85;;;6.57;;
77191;SDS011;66172;48.526;8.078;2023-06-22T04:50:41;18.67;;;7.47;;
77191;SDS011;66172;48.526;8.078;2023-06-22T04:53:07;13.07;;;7.30;;
77191;SDS011;66172;48.526;8.078;2023-06-22T04:55:35;13.73;;;7.32;;
77191;SDS011;66172;48.526;8.078;2023-06-22T04:58:03;13.18;;;7.60;;
77191;SDS011;66172;48.526;8.078;2023-06-22T05:00:30;13.50;;;7.40;;
77191;SDS011;66172;48.526;8.078;2023-06-22T05:02:56;14.45;;;7.35;;
77191;SDS011;66172;48.526;8.078;2023-06-22T05:05:23;10.63;;;6.63;;
77191;SDS011;66172;48.526;8.078;2023-06-22T05:07:50;13.80;;;6.80;;
77191;SDS011;66172;48.526;8.078;2023-06-22T05:10:25;11.98;;;6.85;;
77191;SDS011;66172;48.526;8.078;2023-06-22T05:12:51;13.10;;;6.47;;
77191;SDS011;66172;48.526;8.078;2023-06-22T05:15:17;12.88;;;6.97;;
77191;SDS011;66172;48.526;8.078;2023-06-22T05:17:48;12.43;;;6.23;;
77191;SDS011;66172;48.526;8.078;2023-06-22T05:20:14;12.98;;;7.13;;
77191;SDS011;66172;48.526;8.078;2023-06-22T05:22:43;13.82;;;6.90;;
77191;SDS011;66172;48.526;8.078;2023-06-22T05:25:10;11.45;;;6.28;;
77191;SDS011;66172;48.526;8.078;2023-06-22T05:27:36;10.87;;;6.03;;
77191;SDS011;66172;48.526;8.078;2023-06-22T05:30:07;10.68;;;6.43;;
77191;SDS011;66172;48.526;8.078;2023-06-22T05:32:33;13.75;;;7.22;;
77191;SDS011;66172;48.526;8.078;2023-06-22T05:34:59;10.90;;;6.10;;
77191;SDS011;66172;48.526;8.078;2023-06-22T05:37:26;15.05;;;6.72;;
77191;SDS011;66172;48.526;8.078;2023-06-22T05:39:51;8.80;;;5.90;;
77191;SDS011;66172;48.526;8.078;2023-06-22T05:42:18;13.15;;;6.85;;
77191;SDS011;66172;48.526;8.078;2023-06-22T05:44:44;13.18;;;7.35;;
77191;SDS011;66172;48.526;8.078;2023-06-22T05:47:10;9.40;;;6.38;;
77191;SDS011;66172;48.526;8.078;2023-06-22T05:49:35;12.17;;;6.93;;
77191;SDS011;66172;48.526;8.078;2023-06-22T05:52:01;11.75;;;7.20;;
77191;SDS011;66172;48.526;8.078;2023-06-22T05:54:27;10.65;;;6.85;;
77191;SDS011;66172;48.526;8.078;2023-06-22T05:56:54;13.07;;;7.43;;
77191;SDS011;66172;48.526;8.078;2023-06-22T05:59:20;12.03;;;7.93;;
77191;SDS011;66172;48.526;8.078;2023-06-22T06:01:46;10.18;;;6.72;;
77191;SDS011;66172;48.526;8.078;2023-06-22T06:04:18;14.35;;;7.47;;
77191;SDS011;66172;48.526;8.078;2023-06-22T06:06:44;13.82;;;7.03;;
77191;SDS011;66172;48.526;8.078;2023-06-22T06:09:13;10.70;;;7.30;;
77191;SDS011;66172;48.526;8.078;2023-06-22T06:11:41;15.63;;;7.67;;
77191;SDS011;66172;48.526;8.078;2023-06-22T06:14:08;11.57;;;7.28;;
77191;SDS011;66172;48.526;8.078;2023-06-22T06:16:33;14.27;;;8.20;;
77191;SDS011;66172;48.526;8.078;2023-06-22T06:18:59;11.50;;;7.43;;
77191;SDS011;66172;48.526;8.078;2023-06-22T06:21:25;13.33;;;7.07;;
77191;SDS011;66172;48.526;8.078;2023-06-22T06:23:51;15.50;;;7.78;;
77191;SDS011;66172;48.526;8.078;2023-06-22T06:26:18;14.10;;;7.53;;
77191;SDS011;66172;48.526;8.078;2023-06-22T06:28:53;10.82;;;7.47;;
77191;SDS011;66172;48.526;8.078;2023-06-22T06:31:20;12.35;;;8.00;;
77191;SDS011;66172;48.526;8.078;2023-06-22T06:33:46;11.83;;;7.57;;
77191;SDS011;66172;48.526;8.078;2023-06-22T06:36:12;11.10;;;8.07;;
77191;SDS011;66172;48.526;8.078;2023-06-22T06:38:38;11.38;;;7.85;;
77191;SDS011;66172;48.526;8.078;2023-06-22T06:41:04;11.13;;;7.77;;
77191;SDS011;66172;48.526;8.078;2023-06-22T06:43:30;11.38;;;7.90;;
77191;SDS011;66172;48.526;8.078;2023-06-22T06:45:56;12.80;;;7.80;;
77191;SDS011;66172;48.526;8.078;2023-06-22T06:48:21;12.88;;;8.27;;
77191;SDS011;66172;48.526;8.078;2023-06-22T06:50:47;11.90;;;8.00;;
77191;SDS011;66172;48.526;8.078;2023-06-22T06:53:13;15.10;;;8.57;;
77191;SDS011;66172;48.526;8.078;2023-06-22T06:55:39;15.05;;;8.30;;
77191;SDS011;66172;48.526;8.078;2023-06-22T06:58:05;13.90;;;8.00;;
77191;SDS011;66172;48.526;8.078;2023-06-22T07:00:33;12.00;;;8.10;;
77191;SDS011;66172;48.526;8.078;2023-06-22T07:02:59;15.10;;;8.32;;
77191;SDS011;66172;48.526;8.078;2023-06-22T07:05:25;12.95;;;8.48;;
77191;SDS011;66172;48.526;8.078;2023-06-22T07:07:51;13.03;;;8.37;;
77191;SDS011;66172;48.526;8.078;2023-06-22T07:10:16;13.35;;;8.05;;
77191;SDS011;66172;48.526;8.078;2023-06-22T07:12:42;14.60;;;8.27;;
77191;SDS011;66172;48.526;8.078;2023-06-22T07:15:09;14.60;;;8.37;;
77191;SDS011;66172;48.526;8.078;2023-06-22T07:17:36;13.20;;;8.60;;
77191;SDS011;66172;48.526;8.078;2023-06-22T07:20:02;15.20;;;8.52;;
77191;SDS011;66172;48.526;8.078;2023-06-22T07:22:38;14.13;;;8.10;;
77191;SDS011;66172;48.526;8.078;2023-06-22T07:25:05;14.43;;;7.85;;
77191;SDS011;66172;48.526;8.078;2023-06-22T07:27:38;14.03;;;8.37;;
77191;SDS011;66172;48.526;8.078;2023-06-22T07:30:08;14.13;;;8.88;;
77191;SDS011;66172;48.526;8.078;2023-06-22T07:32:35;14.88;;;8.35;;
77191;SDS011;66172;48.526;8.078;2023-06-22T07:35:01;15.30;;;7.80;;
77191;SDS011;66172;48.526;8.078;2023-06-22T07:37:28;16.23;;;8.52;;
77191;SDS011;66172;48.526;8.078;2023-06-22T07:39:57;13.97;;;8.47;;
77191;SDS011;66172;48.526;8.078;2023-06-22T07:42:26;13.75;;;8.02;;
77191;SDS011;66172;48.526;8.078;2023-06-22T07:44:52;16.02;;;8.07;;
77191;SDS011;66172;48.526;8.078;2023-06-22T07:47:19;15.48;;;8.10;;
77191;SDS011;66172;48.526;8.078;2023-06-22T07:49:45;14.50;;;7.97;;
77191;SDS011;66172;48.526;8.078;2023-06-22T07:52:12;12.93;;;7.47;;
77191;SDS011;66172;48.526;8.078;2023-06-22T07:54:38;13.98;;;8.65;;
77191;SDS011;66172;48.526;8.078;2023-06-22T07:57:04;15.15;;;8.38;;
77191;SDS011;66172;48.526;8.078;2023-06-22T07:59:31;14.38;;;7.80;;
77191;SDS011;66172;48.526;8.078;2023-06-22T08:01:56;13.03;;;7.60;;
77191;SDS011;66172;48.526;8.078;2023-06-22T08:04:23;11.73;;;6.70;;
77191;SDS011;66172;48.526;8.078;2023-06-22T08:06:49;12.35;;;7.25;;
77191;SDS011;66172;48.526;8.078;2023-06-22T08:09:15;13.98;;;7.10;;
77191;SDS011;66172;48.526;8.078;2023-06-22T08:11:41;13.83;;;6.83;;
77191;SDS011;66172;48.526;8.078;2023-06-22T08:14:07;13.35;;;7.00;;
77191;SDS011;66172;48.526;8.078;2023-06-22T08:16:32;14.93;;;6.93;;
77191;SDS011;66172;48.526;8.078;2023-06-22T08:18:58;16.37;;;7.47;;
77191;SDS011;66172;48.526;8.078;2023-06-22T08:21:24;14.07;;;7.45;;
77191;SDS011;66172;48.526;8.078;2023-06-22T08:23:50;11.60;;;6.63;;
77191;SDS011;66172;48.526;8.078;2023-06-22T08:26:16;13.93;;;6.53;;
77191;SDS011;66172;48.526;8.078;2023-06-22T08:28:42;12.03;;;6.83;;
77191;SDS011;66172;48.526;8.078;2023-06-22T08:31:08;11.68;;;6.72;;
77191;SDS011;66172;48.526;8.078;2023-06-22T08:33:34;13.35;;;7.00;;
77191;SDS011;66172;48.526;8.078;2023-06-22T08:36:00;13.98;;;6.32;;
77191;SDS011;66172;48.526;8.078;2023-06-22T08:38:26;13.40;;;6.63;;
77191;SDS011;66172;48.526;8.078;2023-06-22T08:40:52;12.38;;;6.63;;
77191;SDS011;66172;48.526;8.078;2023-06-22T08:43:17;10.95;;;6.68;;
77191;SDS011;66172;48.526;8.078;2023-06-22T08:45:44;13.82;;;6.50;;
77191;SDS011;66172;48.526;8.078;2023-06-22T08:48:10;11.73;;;6.23;;
77191;SDS011;66172;48.526;8.078;2023-06-22T08:50:36;10.88;;;6.70;;
77191;SDS011;66172;48.526;8.078;2023-06-22T08:53:02;13.43;;;6.80;;
77191;SDS011;66172;48.526;8.078;2023-06-22T08:55:27;12.90;;;6.43;;
77191;SDS011;66172;48.526;8.078;2023-06-22T08:57:53;10.48;;;6.40;;
77191;SDS011;66172;48.526;8.078;2023-06-22T09:00:20;12.10;;;6.68;;
77191;SDS011;66172;48.526;8.078;2023-06-22T09:02:46;12.55;;;7.10;;
77191;SDS011;66172;48.526;8.078;2023-06-22T09:05:13;12.23;;;6.77;;
77191;SDS011;66172;48.526;8.078;2023-06-22T09:07:39;12.20;;;6.97;;
77191;SDS011;66172;48.526;8.078;2023-06-22T09:10:05;13.13;;;7.50;;
77191;SDS011;66172;48.526;8.078;2023-06-22T09:12:32;12.35;;;7.47;;
77191;SDS011;66172;48.526;8.078;2023-06-22T09:14:59;15.05;;;7.30;;
77191;SDS011;66172;48.526;8.078;2023-06-22T09:17:26;10.00;;;6.27;;
77191;SDS011;66172;48.526;8.078;2023-06-22T09:19:52;12.70;;;7.30;;
77191;SDS011;66172;48.526;8.078;2023-06-22T09:22:18;11.63;;;6.63;;
77191;SDS011;66172;48.526;8.078;2023-06-22T09:24:44;14.13;;;7.40;;
77191;SDS011;66172;48.526;8.078;2023-06-22T09:27:10;15.17;;;6.90;;
77191;SDS011;66172;48.526;8.078;2023-06-22T09:29:35;14.98;;;6.88;;
77191;SDS011;66172;48.526;8.078;2023-06-22T09:32:01;10.82;;;6.90;;
77191;SDS011;66172;48.526;8.078;2023-06-22T09:34:27;17.73;;;6.50;;
77191;SDS011;66172;48.526;8.078;2023-06-22T09:36:53;14.10;;;6.80;;
77191;SDS011;66172;48.526;8.078;2023-06-22T09:39:20;11.73;;;7.28;;
77191;SDS011;66172;48.526;8.078;2023-06-22T09:41:46;16.67;;;7.68;;
77191;SDS011;66172;48.526;8.078;2023-06-22T09:44:12;13.50;;;6.80;;
77191;SDS011;66172;48.526;8.078;2023-06-22T09:46:38;13.13;;;6.97;;
77191;SDS011;66172;48.526;8.078;2023-06-22T09:49:04;18.58;;;7.30;;
77191;SDS011;66172;48.526;8.078;2023-06-22T09:51:29;12.13;;;6.85;;
77191;SDS011;66172;48.526;8.078;2023-06-22T09:53:55;15.00;;;6.93;;
77191;SDS011;66172;48.526;8.078;2023-06-22T09:56:21;11.65;;;7.13;;
77191;SDS011;66172;48.526;8.078;2023-06-22T09:58:48;16.77;;;7.82;;
77191;SDS011;66172;48.526;8.078;2023-06-22T10:01:15;11.80;;;6.80;;
77191;SDS011;66172;48.526;8.078;2023-06-22T10:03:41;12.87;;;6.93;;
77191;SDS011;66172;48.526;8.078;2023-06-22T10:06:07;14.32;;;6.38;;
77191;SDS011;66172;48.526;8.078;2023-06-22T10:08:34;15.77;;;7.40;;
77191;SDS011;66172;48.526;8.078;2023-06-22T10:11:00;12.32;;;6.78;;
77191;SDS011;66172;48.526;8.078;2023-06-22T10:13:26;17.77;;;6.90;;
77191;SDS011;66172;48.526;8.078;2023-06-22T10:15:52;15.02;;;7.30;;
77191;SDS011;66172;48.526;8.078;2023-06-22T10:18:18;13.38;;;6.95;;
77191;SDS011;66172;48.526;8.078;2023-06-22T10:20:46;11.98;;;7.15;;
77191;SDS011;66172;48.526;8.078;2023-06-22T10:23:13;12.57;;;6.93;;
77191;SDS011;66172;48.526;8.078;2023-06-22T10:25:39;13.50;;;6.65;;
77191;SDS011;66172;48.526;8.078;2023-06-22T10:28:05;12.23;;;6.88;;
77191;SDS011;66172;48.526;8.078;2023-06-22T10:30:31;14.27;;;7.20;;
77191;SDS011;66172;48.526;8.078;2023-06-22T10:32:56;12.03;;;6.83;;
77191;SDS011;66172;48.526;8.078;2023-06-22T10:35:22;13.43;;;7.30;;
77191;SDS011;66172;48.526;8.078;2023-06-22T10:37:48;11.90;;;6.57;;
77191;SDS011;66172;48.526;8.078;2023-06-22T10:40:15;13.50;;;6.80;;
77191;SDS011;66172;48.526;8.078;2023-06-22T10:42:41;13.70;;;6.67;;
77191;SDS011;66172;48.526;8.078;2023-06-22T10:45:07;11.55;;;6.90;;
77191;SDS011;66172;48.526;8.078;2023-06-22T10:47:34;12.98;;;6.57;;
77191;SDS011;66172;48.526;8.078;2023-06-22T10:50:00;12.93;;;6.95;;
77191;SDS011;66172;48.526;8.078;2023-06-22T10:52:27;11.80;;;7.05;;
77191;SDS011;66172;48.526;8.078;2023-06-22T10:54:52;15.07;;;7.43;;
77191;SDS011;66172;48.526;8.078;2023-06-22T10:57:18;13.43;;;7.13;;
77191;SDS011;66172;48.526;8.078;2023-06-22T10:59:44;12.13;;;6.95;;
77191;SDS011;66172;48.526;8.078;2023-06-22T11:02:10;12.00;;;7.40;;
77191;SDS011;66172;48.526;8.078;2023-06-22T11:04:36;12.27;;;6.93;;
77191;SDS011;66172;48.526;8.078;2023-06-22T11:07:02;15.43;;;7.65;;
77191;SDS011;66172;48.526;8.078;2023-06-22T11:09:28;12.80;;;7.93;;
77191;SDS011;66172;48.526;8.078;2023-06-22T11:11:55;13.60;;;8.07;;
77191;SDS011;66172;48.526;8.078;2023-06-22T11:14:21;16.23;;;7.85;;
77191;SDS011;66172;48.526;8.078;2023-06-22T11:16:47;12.70;;;7.50;;
77191;SDS011;66172;48.526;8.078;2023-06-22T11:19:13;16.45;;;7.65;;
77191;SDS011;66172;48.526;8.078;2023-06-22T11:21:39;12.13;;;6.93;;
77191;SDS011;66172;48.526;8.078;2023-06-22T11:24:05;12.07;;;7.55;;
77191;SDS011;66172;48.526;8.078;2023-06-22T11:26:31;14.98;;;7.47;;
77191;SDS011;66172;48.526;8.078;2023-06-22T11:28:58;15.23;;;7.45;;
77191;SDS011;66172;48.526;8.078;2023-06-22T11:31:24;13.03;;;7.50;;
77191;SDS011;66172;48.526;8.078;2023-06-22T11:33:50;12.60;;;7.60;;
77191;SDS011;66172;48.526;8.078;2023-06-22T11:36:16;12.00;;;7.30;;
77191;SDS011;66172;48.526;8.078;2023-06-22T11:38:42;11.80;;;7.03;;
77191;SDS011;66172;48.526;8.078;2023-06-22T11:41:09;15.68;;;7.18;;
77191;SDS011;66172;48.526;8.078;2023-06-22T11:43:35;18.87;;;7.60;;
77191;SDS011;66172;48.526;8.078;2023-06-22T11:46:03;15.82;;;7.18;;
77191;SDS011;66172;48.526;8.078;2023-06-22T11:48:29;13.98;;;7.28;;
77191;SDS011;66172;48.526;8.078;2023-06-22T11:50:55;11.55;;;7.32;;
77191;SDS011;66172;48.526;8.078;2023-06-22T11:53:21;15.88;;;7.47;;
77191;SDS011;66172;48.526;8.078;2023-06-22T11:55:49;13.40;;;7.13;;
77191;SDS011;66172;48.526;8.078;2023-06-22T11:58:16;15.48;;;8.13;;
77191;SDS011;66172;48.526;8.078;2023-06-22T12:00:42;12.82;;;7.65;;
77191;SDS011;66172;48.526;8.078;2023-06-22T12:03:08;16.25;;;7.63;;
77191;SDS011;66172;48.526;8.078;2023-06-22T12:05:34;13.03;;;7.40;;
77191;SDS011;66172;48.526;8.078;2023-06-22T12:08:00;13.75;;;7.40;;
77191;SDS011;66172;48.526;8.078;2023-06-22T12:10:26;13.77;;;7.38;;
77191;SDS011;66172;48.526;8.078;2023-06-22T12:12:55;14.43;;;7.55;;
77191;SDS011;66172;48.526;8.078;2023-06-22T12:15:23;15.45;;;7.60;;
77191;SDS011;66172;48.526;8.078;2023-06-22T12:17:49;12.17;;;7.60;;
77191;SDS011;66172;48.526;8.078;2023-06-22T12:20:15;12.90;;;7.40;;
77191;SDS011;66172;48.526;8.078;2023-06-22T12:22:41;13.18;;;7.45;;
77191;SDS011;66172;48.526;8.078;2023-06-22T12:25:07;13.65;;;7.78;;
77191;SDS011;66172;48.526;8.078;2023-06-22T12:27:34;14.10;;;8.00;;
77191;SDS011;66172;48.526;8.078;2023-06-22T12:30:01;13.73;;;8.10;;
77191;SDS011;66172;48.526;8.078;2023-06-22T12:32:27;13.40;;;7.90;;
77191;SDS011;66172;48.526;8.078;2023-06-22T12:34:53;15.85;;;8.05;;
77191;SDS011;66172;48.526;8.078;2023-06-22T12:37:19;14.00;;;7.78;;
77191;SDS011;66172;48.526;8.078;2023-06-22T12:39:45;15.07;;;8.27;;
77191;SDS011;66172;48.526;8.078;2023-06-22T12:42:11;15.93;;;8.10;;
77191;SDS011;66172;48.526;8.078;2023-06-22T12:44:40;13.85;;;7.75;;
77191;SDS011;66172;48.526;8.078;2023-06-22T12:47:06;12.55;;;6.93;;
77191;SDS011;66172;48.526;8.078;2023-06-22T12:49:36;14.63;;;7.50;;
77191;SDS011;66172;48.526;8.078;2023-06-22T12:52:03;15.68;;;7.35;;
77191;SDS011;66172;48.526;8.078;2023-06-22T12:54:29;17.38;;;7.05;;
77191;SDS011;66172;48.526;8.078;2023-06-22T12:56:55;13.85;;;8.05;;
77191;SDS011;66172;48.526;8.078;2023-06-22T12:59:21;18.63;;;7.65;;
77191;SDS011;66172;48.526;8.078;2023-06-22T13:01:47;12.10;;;7.23;;
77191;SDS011;66172;48.526;8.078;2023-06-22T13:04:13;13.60;;;7.65;;
77191;SDS011;66172;48.526;8.078;2023-06-22T13:06:41;16.85;;;7.53;;
77191;SDS011;66172;48.526;8.078;2023-06-22T13:09:07;13.27;;;7.47;;
77191;SDS011;66172;48.526;8.078;2023-06-22T13:11:34;14.03;;;7.07;;
77191;SDS011;66172;48.526;8.078;2023-06-22T13:14:00;14.45;;;7.30;;
77191;SDS011;66172;48.526;8.078;2023-06-22T13:16:26;14.55;;;7.20;;
77191;SDS011;66172;48.526;8.078;2023-06-22T13:18:52;15.27;;;7.13;;
77191;SDS011;66172;48.526;8.078;2023-06-22T13:21:18;13.38;;;8.07;;
77191;SDS011;66172;48.526;8.078;2023-06-22T13:23:43;13.38;;;6.95;;
77191;SDS011;66172;48.526;8.078;2023-06-22T13:26:09;14.75;;;7.13;;
77191;SDS011;66172;48.526;8.078;2023-06-22T13:28:35;14.37;;;7.23;;
77191;SDS011;66172;48.526;8.078;2023-06-22T13:31:01;14.98;;;6.97;;
77191;SDS011;66172;48.526;8.078;2023-06-22T13:33:27;11.98;;;6.75;;
77191;SDS011;66172;48.526;8.078;2023-06-22T13:35:53;13.43;;;6.70;;
77191;SDS011;66172;48.526;8.078;2023-06-22T13:38:19;12.68;;;6.07;;
77191;SDS011;66172;48.526;8.078;2023-06-22T13:40:45;12.43;;;6.53;;
77191;SDS011;66172;48.526;8.078;2023-06-22T13:43:11;13.98;;;5.95;;
77191;SDS011;66172;48.526;8.078;2023-06-22T13:45:36;14.47;;;6.17;;
77191;SDS011;66172;48.526;8.078;2023-06-22T13:48:02;12.60;;;5.78;;
77191;SDS011;66172;48.526;8.078;2023-06-22T13:50:28;12.50;;;5.60;;
77191;SDS011;66172;48.526;8.078;2023-06-22T13:52:55;12.27;;;5.50;;
77191;SDS011;66172;48.526;8.078;2023-06-22T13:55:21;14.30;;;6.23;;
77191;SDS011;66172;48.526;8.078;2023-06-22T13:57:48;16.55;;;6.03;;
77191;SDS011;66172;48.526;8.078;2023-06-22T14:00:14;13.45;;;5.45;;
77191;SDS011;66172;48.526;8.078;2023-06-22T14:02:41;13.52;;;5.60;;
77191;SDS011;66172;48.526;8.078;2023-06-22T14:05:07;13.83;;;5.10;;
77191;SDS011;66172;48.526;8.078;2023-06-22T14:07:33;14.52;;;5.47;;
77191;SDS011;66172;48.526;8.078;2023-06-22T14:09:59;13.07;;;5.30;;
77191;SDS011;66172;48.526;8.078;2023-06-22T14:12:26;15.27;;;5.40;;
77191;SDS011;66172;48.526;8.078;2023-06-22T14:14:51;13.00;;;4.90;;
77191;SDS011;66172;48.526;8.078;2023-06-22T14:17:17;10.27;;;5.07;;
77191;SDS011;66172;48.526;8.078;2023-06-22T14:19:49;15.55;;;5.40;;
77191;SDS011;66172;48.526;8.078;2023-06-22T14:22:18;15.38;;;5.70;;
77191;SDS011;66172;48.526;8.078;2023-06-22T14:24:45;13.50;;;5.00;;
77191;SDS011;66172;48.526;8.078;2023-06-22T14:27:11;14.07;;;5.57;;
77191;SDS011;66172;48.526;8.078;2023-06-22T14:29:37;13.47;;;5.00;;
77191;SDS011;66172;48.526;8.078;2023-06-22T14:32:03;14.32;;;5.60;;
77191;SDS011;66172;48.526;8.078;2023-06-22T14:34:32;13.38;;;5.18;;
77191;SDS011;66172;48.526;8.078;2023-06-22T14:37:07;10.55;;;4.97;;
77191;SDS011;66172;48.526;8.078;2023-06-22T14:39:38;11.37;;;5.00;;